Aviation Digital Data Service (ADDS)

Output produced by METARs form (1216 UTC 23 June 2021)
found at http://www.aviationweather.gov/metar/data/
 
METAR text: KBJC 231155Z AUTO 00000KT 10SM CLR 19/02 A2998 RMK AO2
Conditions at: KBJC (BROOMFIELD/JEFFC, CO, US) observed 1155 UTC 23 June 2021
Temperature: 19.0°C (66°F)
Dewpoint: 2.0°C (36°F) [RH = 32%]
Pressure (altimeter): 29.98 inches Hg (1015.3 mb)
Winds: calm
Visibility: 10 or more miles (16+ km)
Ceiling: at least 12,000 feet AGL
Clouds: sky clear below 12,000 feet AGL
Weather: automated observation with no human augmentation;
there may or may not be significant weather present at this time

METAR text: KBJC 231148Z VRB03KT 10SM SCT100 19/04 A2998
Conditions at: KBJC (BROOMFIELD/JEFFC, CO, US) observed 1148 UTC 23 June 2021
Temperature: 19.0°C (66°F)
Dewpoint: 4.0°C (39°F) [RH = 37%]
Pressure (altimeter): 29.98 inches Hg (1015.3 mb)
Winds: variable direction winds at 3 MPH (3 knots; 1.5 m/s)
Visibility: 10 or more miles (16+ km)
Ceiling: at least 12,000 feet AGL
Clouds: scattered clouds at 10000 feet AGL
Weather: no significant weather observed at this time

METAR text: KBJC 231135Z AUTO 00000KT 10SM CLR 20/02 A2998 RMK AO2
Conditions at: KBJC (BROOMFIELD/JEFFC, CO, US) observed 1135 UTC 23 June 2021
Temperature: 20.0°C (68°F)
Dewpoint: 2.0°C (36°F) [RH = 30%]
Pressure (altimeter): 29.98 inches Hg (1015.3 mb)
Winds: calm
Visibility: 10 or more miles (16+ km)
Ceiling: at least 12,000 feet AGL
Clouds: sky clear below 12,000 feet AGL
Weather: automated observation with no human augmentation;
there may or may not be significant weather present at this time

Forecast for: KBJC (BROOMFIELD/JEFFC, CO, US)
Text: KBJC 231128Z 2312/2412 28004KT P6SM FU BKN160
Forecast period: 1200 to 1600 UTC 23 June 2021
Forecast type: FROM: standard forecast or significant change
Winds: from the W (280 degrees) at 5 MPH (4 knots; 2.1 m/s)
Visibility: 6 or more miles (10+ km)
Ceiling: 16000 feet AGL
Clouds: broken clouds at 16000 feet AGL
Weather: FU  (smoke)
Text: FM231600 VRB06KT P6SM SCT100 BKN160
Forecast period: 1600 to 2100 UTC 23 June 2021
Forecast type: FROM: standard forecast or significant change
Winds: variable direction winds at 7 MPH (6 knots; 3.1 m/s)
Visibility: 6 or more miles (10+ km)
Ceiling: 16000 feet AGL
Clouds: scattered clouds at 10000 feet AGL
broken clouds at 16000 feet AGL
Weather: no significant weather forecast for this period
Text: FM232100 32010KT P6SM SCT100 BKN160
Forecast period: 2100 UTC 23 June 2021 to 0200 UTC 24 June 2021
Forecast type: FROM: standard forecast or significant change
Winds: from the NW (320 degrees) at 12 MPH (10 knots; 5.1 m/s)
Visibility: 6 or more miles (10+ km)
Ceiling: 16000 feet AGL
Clouds: scattered clouds at 10000 feet AGL
broken clouds at 16000 feet AGL
Weather: no significant weather forecast for this period
Text: FM240200 26008KT P6SM SCT100 BKN160
Forecast period: 0200 to 0600 UTC 24 June 2021
Forecast type: FROM: standard forecast or significant change
Winds: from the W (260 degrees) at 9 MPH (8 knots; 4.1 m/s)
Visibility: 6 or more miles (10+ km)
Ceiling: 16000 feet AGL
Clouds: scattered clouds at 10000 feet AGL
broken clouds at 16000 feet AGL
Weather: no significant weather forecast for this period
Text: FM240600 23008KT P6SM SCT060 BKN100
Forecast period: 0600 to 1200 UTC 24 June 2021
Forecast type: FROM: standard forecast or significant change
Winds: from the SW (230 degrees) at 9 MPH (8 knots; 4.1 m/s)
Visibility: 6 or more miles (10+ km)
Ceiling: 10000 feet AGL
Clouds: scattered clouds at 6000 feet AGL
broken clouds at 10000 feet AGL
Weather: no significant weather forecast for this period